Time;durP1;ratioP1;P1;durP2;ratioP2;P2;SDS_P1;SDS_P2;PMS_P1;PMS_P2;Temp;Humidity;BMP_temperature;BMP_pressure;BME280_temperature;BME280_humidity;BME280_pressure;Samples;Min_cycle;Max_cycle;Signal;HPM_P1;HPM_P2
2021/05/07 00:00:15;;;;;;;;;;;7.50;99.90;;;;;;5085086;28;19908;-70
2021/05/07 00:02:40;;;;;;;;;;;7.60;99.90;;;;;;5113178;28;20016;-70
2021/05/07 00:05:06;;;;;;;;;;;7.60;99.90;;;;;;5110870;28;19908;-70
2021/05/07 00:07:32;;;;;;;;;;;7.50;99.90;;;;;;5112405;28;19907;-70
2021/05/07 00:09:58;;;;;;;;;;;7.50;99.90;;;;;;5113225;28;19953;-70
2021/05/07 00:12:23;;;;;;;;;;;7.50;99.90;;;;;;5113606;28;20269;-70
2021/05/07 00:14:48;;;;;;;;;;;7.50;99.90;;;;;;5113320;28;19993;-70
2021/05/07 00:17:14;;;;;;;;;;;7.40;99.90;;;;;;5112127;28;19915;-70
2021/05/07 00:19:39;;;;;;;;;;;7.40;99.90;;;;;;5112716;28;20002;-70
2021/05/07 00:22:05;;;;;;;;;;;7.40;99.90;;;;;;5112791;28;20321;-70
2021/05/07 00:24:30;;;;;;;;;;;7.30;99.90;;;;;;5113018;28;19908;-70
2021/05/07 00:26:56;;;;;;;;;;;7.30;99.90;;;;;;5110794;28;19907;-70
2021/05/07 00:29:22;;;;;;;;;;;7.30;99.90;;;;;;5111450;28;20045;-70
2021/05/07 00:31:47;;;;;;;;;;;7.30;99.90;;;;;;5097806;28;20365;-70
2021/05/07 00:34:13;;;;;;;;;;;7.30;99.90;;;;;;5110930;28;20403;-70
2021/05/07 00:36:38;;;;;;;;;;;7.30;99.90;;;;;;5110599;28;20177;-69
2021/05/07 00:39:04;;;;;;;;;;;7.40;99.90;;;;;;5112526;28;19916;-70
2021/05/07 00:41:29;;;;;;;;;;;7.30;99.90;;;;;;5112761;28;19908;-70
2021/05/07 00:43:56;;;;;;;;;;;7.30;99.90;;;;;;5112492;28;19907;-70
2021/05/07 00:46:21;;;;;;;;;;;7.30;99.90;;;;;;5111633;28;20292;-70
2021/05/07 00:48:47;;;;;;;;;;;7.30;99.90;;;;;;5112520;28;19915;-70
2021/05/07 00:51:14;;;;;;;;;;;7.30;99.90;;;;;;5110849;28;20161;-70
2021/05/07 00:53:39;;;;;;;;;;;7.30;99.90;;;;;;5112462;28;19949;-70
2021/05/07 00:56:05;;;;;;;;;;;7.30;99.90;;;;;;5111421;28;19908;-70
2021/05/07 00:58:30;;;;;;;;;;;7.30;99.90;;;;;;5112341;28;19915;-70
2021/05/07 01:00:56;;;;;;;;;;;7.30;99.90;;;;;;5090127;28;19947;-69
2021/05/07 01:03:22;;;;;;;;;;;7.30;99.90;;;;;;5091487;28;19991;-70
2021/05/07 01:05:47;;;;;;;;;;;7.30;99.90;;;;;;5090582;28;19908;-70
2021/05/07 01:08:13;;;;;;;;;;;7.30;99.90;;;;;;5091728;28;19908;-70
2021/05/07 01:10:39;;;;;;;;;;;7.30;99.90;;;;;;5091828;28;19912;-70
2021/05/07 01:13:04;;;;;;;;;;;7.20;99.90;;;;;;5087531;28;19908;-69
2021/05/07 01:15:30;;;;;;;;;;;7.20;99.90;;;;;;5091724;28;19915;-69
2021/05/07 01:17:56;;;;;;;;;;;7.20;99.90;;;;;;5090797;28;19908;-69
2021/05/07 01:20:23;;;;;;;;;;;7.20;99.90;;;;;;5090069;28;19970;-70
2021/05/07 01:22:53;;;;;;;;;;;7.30;99.90;;;;;;5091822;28;19912;-69
2021/05/07 01:25:20;;;;;;;;;;;7.20;99.90;;;;;;5091706;28;19934;-70
2021/05/07 01:27:47;;;;;;;;;;;7.30;99.90;;;;;;5090464;28;19908;-69
2021/05/07 01:30:14;;;;;;;;;;;7.30;99.90;;;;;;5083347;28;19912;-70
2021/05/07 01:32:40;;;;;;;;;;;7.30;99.90;;;;;;5090972;28;19965;-69
2021/05/07 01:35:07;;;;;;;;;;;7.30;99.90;;;;;;5091103;28;20393;-69
2021/05/07 01:37:33;;;;;;;;;;;7.30;99.90;;;;;;5090545;28;20433;-70
2021/05/07 01:39:58;;;;;;;;;;;7.20;99.90;;;;;;5091301;28;19995;-71
2021/05/07 01:42:24;;;;;;;;;;;7.20;99.90;;;;;;5091679;28;20090;-70
2021/05/07 01:44:49;;;;;;;;;;;7.10;99.90;;;;;;5091242;28;19951;-70
2021/05/07 01:47:15;;;;;;;;;;;7.20;99.90;;;;;;5090116;28;19943;-70
2021/05/07 01:49:40;;;;;;;;;;;7.10;99.90;;;;;;5090711;28;19908;-70
2021/05/07 01:52:06;;;;;;;;;;;7.10;99.90;;;;;;5091050;28;19969;-70
2021/05/07 01:54:31;;;;;;;;;;;7.10;99.90;;;;;;5091205;28;20002;-71
2021/05/07 01:56:57;;;;;;;;;;;7.10;99.90;;;;;;5090058;28;19912;-71
2021/05/07 01:59:22;;;;;;;;;;;7.10;99.90;;;;;;5090149;28;20125;-70
2021/05/07 02:01:48;;;;;;;;;;;7.10;99.90;;;;;;5083594;28;19908;-70
2021/05/07 02:04:13;;;;;;;;;;;7.20;99.90;;;;;;5089006;28;19997;-70
2021/05/07 02:06:38;;;;;;;;;;;7.20;99.90;;;;;;5090028;28;19915;-70
2021/05/07 02:09:04;;;;;;;;;;;7.20;99.90;;;;;;5090974;28;20375;-70
2021/05/07 02:11:29;;;;;;;;;;;7.20;99.90;;;;;;5091042;28;19912;-70
2021/05/07 02:13:55;;;;;;;;;;;7.20;99.90;;;;;;5089617;28;20292;-71
2021/05/07 02:16:20;;;;;;;;;;;7.20;99.90;;;;;;5089942;28;19912;-70
2021/05/07 02:18:46;;;;;;;;;;;7.20;99.90;;;;;;5091153;28;19997;-70
2021/05/07 02:21:12;;;;;;;;;;;7.20;99.90;;;;;;5090613;28;19914;-70
2021/05/07 02:23:37;;;;;;;;;;;7.20;99.90;;;;;;5090975;28;19908;-70
2021/05/07 02:26:03;;;;;;;;;;;7.20;99.90;;;;;;5090225;28;20257;-71
2021/05/07 02:28:28;;;;;;;;;;;7.20;99.90;;;;;;5092815;28;19908;-70
2021/05/07 02:30:54;;;;;;;;;;;7.10;99.90;;;;;;5086748;28;20026;-70
2021/05/07 02:33:19;;;;;;;;;;;7.10;99.90;;;;;;5094314;28;19961;-72
2021/05/07 02:35:45;;;;;;;;;;;7.10;99.90;;;;;;5093628;28;19973;-70
2021/05/07 02:38:10;;;;;;;;;;;7.10;99.90;;;;;;5095091;28;19916;-70
2021/05/07 02:40:36;;;;;;;;;;;7.10;99.90;;;;;;5094849;28;20246;-71
2021/05/07 02:43:01;;;;;;;;;;;7.10;99.90;;;;;;5094610;28;19951;-70
2021/05/07 02:45:27;;;;;;;;;;;7.10;99.90;;;;;;5094661;28;20292;-70
2021/05/07 02:47:52;;;;;;;;;;;7.10;99.90;;;;;;5093327;28;19936;-71
2021/05/07 02:50:18;;;;;;;;;;;7.10;99.90;;;;;;5094171;28;20474;-71
2021/05/07 02:52:44;;;;;;;;;;;7.10;99.90;;;;;;5094678;28;19919;-70
2021/05/07 02:55:10;;;;;;;;;;;7.00;99.90;;;;;;5094224;28;19957;-72
2021/05/07 02:57:36;;;;;;;;;;;7.00;99.90;;;;;;5091981;28;19923;-71
2021/05/07 03:00:04;;;;;;;;;;;7.10;99.90;;;;;;5088056;28;19908;-70
2021/05/07 03:02:29;;;;;;;;;;;7.00;99.90;;;;;;5092117;28;19923;-70
2021/05/07 03:04:55;;;;;;;;;;;7.00;99.90;;;;;;5093843;28;19908;-71
2021/05/07 03:07:20;;;;;;;;;;;7.00;99.90;;;;;;5092943;28;20265;-71
2021/05/07 03:09:45;;;;;;;;;;;7.00;99.90;;;;;;5094095;28;20003;-70
2021/05/07 03:12:11;;;;;;;;;;;7.00;99.90;;;;;;5094041;28;20307;-70
2021/05/07 03:14:37;;;;;;;;;;;7.00;99.90;;;;;;5094297;28;19915;-70
2021/05/07 03:17:02;;;;;;;;;;;7.00;99.90;;;;;;5092558;28;19923;-70
2021/05/07 03:19:28;;;;;;;;;;;7.00;99.90;;;;;;5093463;28;20221;-70
2021/05/07 03:21:53;;;;;;;;;;;7.00;99.90;;;;;;5094080;28;20281;-70
2021/05/07 03:24:19;;;;;;;;;;;6.90;99.90;;;;;;5093909;28;19943;-70
2021/05/07 03:26:44;;;;;;;;;;;6.90;99.90;;;;;;5092997;28;19946;-70
2021/05/07 03:29:10;;;;;;;;;;;6.90;99.90;;;;;;5093813;28;19993;-70
2021/05/07 03:31:36;;;;;;;;;;;6.90;99.90;;;;;;5085071;28;20490;-70
2021/05/07 03:34:02;;;;;;;;;;;6.90;99.90;;;;;;5093672;28;19953;-70
2021/05/07 03:36:28;;;;;;;;;;;6.90;99.90;;;;;;5092660;28;19995;-70
2021/05/07 03:38:54;;;;;;;;;;;6.90;99.90;;;;;;5092301;28;19964;-71
2021/05/07 03:41:19;;;;;;;;;;;7.00;99.90;;;;;;5093483;28;19908;-71
2021/05/07 03:43:45;;;;;;;;;;;7.00;99.90;;;;;;5093463;28;19914;-70
2021/05/07 03:46:10;;;;;;;;;;;6.90;99.90;;;;;;5092541;28;19913;-70
2021/05/07 03:48:36;;;;;;;;;;;6.90;99.90;;;;;;5093385;28;19908;-70
2021/05/07 03:51:01;;;;;;;;;;;6.90;99.90;;;;;;5093198;28;20395;-71
2021/05/07 03:53:27;;;;;;;;;;;6.90;99.90;;;;;;5093308;28;19952;-70
2021/05/07 03:55:55;;;;;;;;;;;6.90;99.90;;;;;;5092205;28;20343;-70
2021/05/07 03:58:20;;;;;;;;;;;6.90;99.90;;;;;;5093271;28;19912;-70
2021/05/07 04:00:46;;;;;;;;;;;6.70;99.90;;;;;;5084649;28;19908;-70
2021/05/07 04:03:12;;;;;;;;;;;6.70;99.90;;;;;;5092969;28;19912;-71
2021/05/07 04:05:37;;;;;;;;;;;6.60;99.90;;;;;;5092188;28;19914;-70
2021/05/07 04:08:21;;;;;;;;;;;6.50;99.90;;;;;;5092581;28;19970;-70
2021/05/07 04:10:50;;;;;;;;;;;6.40;99.90;;;;;;5093071;28;19912;-70
2021/05/07 04:13:39;;;;;;;;;;;6.40;99.90;;;;;;5092879;28;19908;-71
2021/05/07 04:16:05;;;;;;;;;;;6.40;99.90;;;;;;5090571;28;19943;-69
2021/05/07 04:18:30;;;;;;;;;;;6.30;99.90;;;;;;5092901;28;20360;-70
2021/05/07 04:20:56;;;;;;;;;;;6.20;99.90;;;;;;5092693;28;19930;-71
2021/05/07 04:23:21;;;;;;;;;;;6.20;99.90;;;;;;5092768;28;20444;-70
2021/05/07 04:25:47;;;;;;;;;;;6.10;99.90;;;;;;5091727;28;19912;-70
2021/05/07 04:28:12;;;;;;;;;;;6.10;99.90;;;;;;5092559;28;20377;-70
2021/05/07 04:30:38;;;;;;;;;;;6.10;99.90;;;;;;5084257;28;19920;-70
2021/05/07 04:33:04;;;;;;;;;;;6.00;99.90;;;;;;5092402;28;19962;-70
2021/05/07 04:35:29;;;;;;;;;;;5.90;99.90;;;;;;5092304;28;19908;-70
2021/05/07 04:37:55;;;;;;;;;;;5.70;99.90;;;;;;5089977;28;20015;-71
2021/05/07 04:40:20;;;;;;;;;;;5.60;99.90;;;;;;5092235;28;20002;-70
2021/05/07 04:42:46;;;;;;;;;;;5.60;99.90;;;;;;5092868;28;20201;-70
2021/05/07 04:45:11;;;;;;;;;;;5.50;99.90;;;;;;5092351;28;20365;-70
2021/05/07 04:47:37;;;;;;;;;;;5.50;99.90;;;;;;5090809;28;19958;-70
2021/05/07 04:50:04;;;;;;;;;;;5.50;99.90;;;;;;5091575;28;20106;-72
2021/05/07 04:52:30;;;;;;;;;;;5.40;99.90;;;;;;5092270;28;19908;-70
2021/05/07 04:54:57;;;;;;;;;;;5.40;99.90;;;;;;5092127;28;20367;-70
2021/05/07 04:57:23;;;;;;;;;;;5.40;99.90;;;;;;5091127;28;19922;-71
2021/05/07 04:59:48;;;;;;;;;;;5.30;99.90;;;;;;5087557;28;19909;-70
2021/05/07 05:02:14;;;;;;;;;;;5.30;99.90;;;;;;5088332;28;19915;-70
2021/05/07 05:04:39;;;;;;;;;;;5.40;99.90;;;;;;5091559;28;19908;-70
2021/05/07 05:07:07;;;;;;;;;;;5.40;99.90;;;;;;5090981;28;19962;-70
2021/05/07 05:09:33;;;;;;;;;;;5.50;99.90;;;;;;5091817;28;20168;-70
2021/05/07 05:11:59;;;;;;;;;;;5.50;99.90;;;;;;5091895;28;19916;-70
2021/05/07 05:14:24;;;;;;;;;;;5.50;99.90;;;;;;5091953;28;19908;-70
2021/05/07 05:16:49;;;;;;;;;;;5.50;99.90;;;;;;5091079;28;19912;-71
2021/05/07 05:19:15;;;;;;;;;;;5.50;99.90;;;;;;5091813;28;19908;-70
2021/05/07 05:21:41;;;;;;;;;;;5.50;99.90;;;;;;5091596;28;19915;-70
2021/05/07 05:24:07;;;;;;;;;;;5.50;99.90;;;;;;5091437;28;20376;-70
2021/05/07 05:26:33;;;;;;;;;;;5.50;99.90;;;;;;5090505;28;19954;-70
2021/05/07 05:28:58;;;;;;;;;;;5.50;99.90;;;;;;5091469;28;19908;-70
2021/05/07 05:31:24;;;;;;;;;;;5.50;99.90;;;;;;5083168;28;20010;-71
2021/05/07 05:33:49;;;;;;;;;;;5.50;99.90;;;;;;5091665;28;19915;-70
2021/05/07 05:36:15;;;;;;;;;;;5.50;99.90;;;;;;5090844;28;19908;-70
2021/05/07 05:38:40;;;;;;;;;;;5.50;99.90;;;;;;5091259;28;20389;-71
2021/05/07 05:41:06;;;;;;;;;;;5.50;99.90;;;;;;5091666;28;20257;-71
2021/05/07 05:43:32;;;;;;;;;;;5.50;99.90;;;;;;5091572;28;20046;-70
2021/05/07 05:45:57;;;;;;;;;;;5.50;99.90;;;;;;5089280;28;20304;-70
2021/05/07 05:48:23;;;;;;;;;;;5.50;99.90;;;;;;5091396;28;20386;-71
2021/05/07 05:50:49;;;;;;;;;;;5.60;99.90;;;;;;5091335;28;19916;-71
2021/05/07 05:53:15;;;;;;;;;;;5.60;99.90;;;;;;5091631;28;19908;-70
2021/05/07 05:55:41;;;;;;;;;;;5.60;99.90;;;;;;5090335;28;20418;-70
2021/05/07 05:58:06;;;;;;;;;;;5.60;99.90;;;;;;5090158;28;20346;-71
2021/05/07 06:00:32;;;;;;;;;;;5.70;99.90;;;;;;5083231;28;19915;-70
2021/05/07 06:02:58;;;;;;;;;;;5.70;99.90;;;;;;5090545;28;19999;-70
2021/05/07 06:05:24;;;;;;;;;;;5.70;99.90;;;;;;5091299;28;19912;-70
2021/05/07 06:07:49;;;;;;;;;;;5.80;99.90;;;;;;5090221;28;19909;-71
2021/05/07 06:10:16;;;;;;;;;;;5.90;99.90;;;;;;5091487;28;19915;-71
2021/05/07 06:12:43;;;;;;;;;;;5.90;99.90;;;;;;5091251;28;19915;-70
2021/05/07 06:15:09;;;;;;;;;;;6.00;99.90;;;;;;5091397;28;19915;-71
2021/05/07 06:17:35;;;;;;;;;;;6.00;99.90;;;;;;5088565;28;19908;-70
2021/05/07 06:20:04;;;;;;;;;;;6.00;99.90;;;;;;5090884;28;20311;-70
2021/05/07 06:22:30;;;;;;;;;;;6.10;99.90;;;;;;5091011;28;19908;-71
2021/05/07 06:24:55;;;;;;;;;;;6.10;99.90;;;;;;5090847;28;20609;-71
2021/05/07 06:27:21;;;;;;;;;;;6.20;99.90;;;;;;5090029;28;19915;-71
2021/05/07 06:29:46;;;;;;;;;;;6.20;99.90;;;;;;5086730;28;19940;-70
2021/05/07 06:32:12;;;;;;;;;;;6.20;99.90;;;;;;5083551;28;19916;-70
2021/05/07 06:34:37;;;;;;;;;;;6.30;99.90;;;;;;5082193;28;19947;-70
2021/05/07 06:37:03;;;;;;;;;;;6.30;99.90;;;;;;5077807;28;20308;-71
2021/05/07 06:39:30;;;;;;;;;;;6.20;99.90;;;;;;5081333;28;19912;-71
2021/05/07 06:41:56;;;;;;;;;;;6.10;99.90;;;;;;5079932;28;20280;-71
2021/05/07 06:44:22;;;;;;;;;;;6.10;99.90;;;;;;5079692;28;19908;-71
2021/05/07 06:46:47;;;;;;;;;;;6.10;99.90;;;;;;5071934;28;19908;-71
2021/05/07 06:49:12;;;;;;;;;;;6.20;99.90;;;;;;5086736;28;20571;-71
2021/05/07 06:51:38;;;;;;;;;;;6.30;99.90;;;;;;5089200;28;19912;-71
2021/05/07 06:54:06;;;;;;;;;;;6.30;99.90;;;;;;5089411;28;20249;-71
2021/05/07 06:56:31;;;;;;;;;;;6.30;99.90;;;;;;5089355;28;19908;-71
2021/05/07 06:58:57;;;;;;;;;;;6.30;99.90;;;;;;5090573;28;19915;-71
2021/05/07 07:01:22;;;;;;;;;;;6.40;99.90;;;;;;5078178;28;19946;-72
2021/05/07 07:03:48;;;;;;;;;;;6.40;99.90;;;;;;5090513;28;19908;-71
2021/05/07 07:06:13;;;;;;;;;;;6.40;99.90;;;;;;5089091;28;19919;-70
2021/05/07 07:08:39;;;;;;;;;;;6.50;99.90;;;;;;5080447;28;19918;-70
2021/05/07 07:11:04;;;;;;;;;;;6.50;99.90;;;;;;5090042;28;19912;-71
2021/05/07 07:13:30;;;;;;;;;;;6.50;99.90;;;;;;5090460;28;19998;-69
2021/05/07 07:15:55;;;;;;;;;;;6.60;99.90;;;;;;5090493;28;19980;-69
2021/05/07 07:18:21;;;;;;;;;;;6.60;99.90;;;;;;5093791;28;20006;-71
2021/05/07 07:20:47;;;;;;;;;;;6.60;99.90;;;;;;5093733;28;19934;-71
2021/05/07 07:23:13;;;;;;;;;;;6.50;99.90;;;;;;5087642;28;19969;-70
2021/05/07 07:25:38;;;;;;;;;;;6.40;99.90;;;;;;5071399;28;19913;-72
2021/05/07 07:28:04;;;;;;;;;;;6.40;99.90;;;;;;5086752;28;20166;-71
2021/05/07 07:30:30;;;;;;;;;;;6.40;99.90;;;;;;5085214;28;20377;-71
2021/05/07 07:32:55;;;;;;;;;;;6.40;99.90;;;;;;5093397;28;19919;-71
2021/05/07 07:35:21;;;;;;;;;;;6.40;99.90;;;;;;5092941;28;20080;-70
2021/05/07 07:37:47;;;;;;;;;;;6.40;99.90;;;;;;5092230;28;19920;-71
2021/05/07 07:40:13;;;;;;;;;;;6.50;99.90;;;;;;5093307;28;19995;-71
2021/05/07 07:42:40;;;;;;;;;;;6.60;99.90;;;;;;5093442;28;19954;-70
2021/05/07 07:45:06;;;;;;;;;;;6.80;99.90;;;;;;5093453;28;19908;-70
2021/05/07 07:47:31;;;;;;;;;;;6.90;99.90;;;;;;5092310;28;19915;-70
2021/05/07 07:49:57;;;;;;;;;;;7.20;99.90;;;;;;5092972;28;20015;-71
2021/05/07 07:52:22;;;;;;;;;;;7.60;99.90;;;;;;5092735;28;20060;-70
2021/05/07 07:54:48;;;;;;;;;;;8.10;99.90;;;;;;5093033;28;19908;-71
2021/05/07 07:57:13;;;;;;;;;;;8.40;99.90;;;;;;5092160;28;19927;-71
2021/05/07 07:59:39;;;;;;;;;;;8.60;99.90;;;;;;5089703;28;19908;-71
2021/05/07 08:02:04;;;;;;;;;;;8.50;99.90;;;;;;5088331;28;20204;-71
2021/05/07 08:04:30;;;;;;;;;;;8.40;99.90;;;;;;5092514;28;19918;-71
2021/05/07 08:06:55;;;;;;;;;;;8.20;99.90;;;;;;5091691;28;19912;-71
2021/05/07 08:09:21;;;;;;;;;;;8.00;99.90;;;;;;5092783;28;20353;-71
2021/05/07 08:11:46;;;;;;;;;;;7.90;99.90;;;;;;5092684;28;19912;-71
2021/05/07 08:14:12;;;;;;;;;;;7.70;99.90;;;;;;5092756;28;19909;-71
2021/05/07 08:16:37;;;;;;;;;;;7.60;99.90;;;;;;5091809;28;19946;-72
2021/05/07 08:19:03;;;;;;;;;;;7.50;99.90;;;;;;5092600;28;19919;-71
2021/05/07 08:21:29;;;;;;;;;;;7.40;99.90;;;;;;5092232;28;19938;-71
2021/05/07 08:23:55;;;;;;;;;;;7.30;99.90;;;;;;5092235;28;19915;-71
2021/05/07 08:26:20;;;;;;;;;;;7.20;99.90;;;;;;5081305;28;19909;-71
2021/05/07 08:28:46;;;;;;;;;;;7.20;99.90;;;;;;5092265;28;19931;-71
2021/05/07 08:31:11;;;;;;;;;;;7.10;99.90;;;;;;5084203;28;20395;-71
2021/05/07 08:33:37;;;;;;;;;;;7.10;99.90;;;;;;5085944;28;19994;-71
2021/05/07 08:36:03;;;;;;;;;;;7.00;99.90;;;;;;5090715;28;20326;-71
2021/05/07 08:38:29;;;;;;;;;;;6.90;99.90;;;;;;5092116;28;19923;-71
2021/05/07 08:40:56;;;;;;;;;;;6.80;99.90;;;;;;5092566;28;19961;-70
2021/05/07 08:43:21;;;;;;;;;;;6.80;99.90;;;;;;5092253;28;19908;-70
2021/05/07 08:45:47;;;;;;;;;;;7.00;99.90;;;;;;5082782;28;19950;-70
2021/05/07 08:48:13;;;;;;;;;;;6.90;99.90;;;;;;5090606;28;19912;-71
2021/05/07 08:50:39;;;;;;;;;;;7.00;99.90;;;;;;5086854;28;20045;-71
2021/05/07 08:53:04;;;;;;;;;;;7.00;99.90;;;;;;5091987;28;19954;-72
2021/05/07 08:55:29;;;;;;;;;;;7.00;99.90;;;;;;5092179;28;20060;-71
2021/05/07 08:57:55;;;;;;;;;;;7.50;99.90;;;;;;5091002;28;19915;-71
2021/05/07 09:00:21;;;;;;;;;;;8.30;99.90;;;;;;5083430;28;19908;-70
2021/05/07 09:02:46;;;;;;;;;;;8.90;99.90;;;;;;5090301;28;19915;-74
2021/05/07 09:05:12;;;;;;;;;;;8.90;99.90;;;;;;5090324;28;19908;-71
2021/05/07 09:07:39;;;;;;;;;;;8.70;99.90;;;;;;5090670;28;19998;-70
2021/05/07 09:10:06;;;;;;;;;;;8.80;99.90;;;;;;5091748;28;20329;-70
2021/05/07 09:12:32;;;;;;;;;;;9.00;99.90;;;;;;5091629;28;19916;-71
2021/05/07 09:14:58;;;;;;;;;;;9.10;99.90;;;;;;5091641;28;20357;-71
2021/05/07 09:17:25;;;;;;;;;;;8.90;99.90;;;;;;5090555;28;20301;-71
2021/05/07 09:20:01;;;;;;;;;;;8.80;99.90;;;;;;5091526;28;19909;-71
2021/05/07 09:22:27;;;;;;;;;;;8.60;99.90;;;;;;5091045;28;20007;-72
2021/05/07 09:25:06;;;;;;;;;;;8.50;99.90;;;;;;5091394;28;20014;-71
2021/05/07 09:27:31;;;;;;;;;;;8.60;99.90;;;;;;5090819;28;19908;-71
2021/05/07 09:29:57;;;;;;;;;;;9.30;99.90;;;;;;5085486;28;19912;-72
2021/05/07 09:32:29;;;;;;;;;;;10.10;99.90;;;;;;5088283;28;20270;-71
2021/05/07 09:35:05;;;;;;;;;;;10.40;99.90;;;;;;5091336;28;20291;-71
2021/05/07 09:37:30;;;;;;;;;;;10.10;99.90;;;;;;5087769;28;20002;-71
2021/05/07 09:39:56;;;;;;;;;;;9.60;99.90;;;;;;5091658;28;20003;-71
2021/05/07 09:42:22;;;;;;;;;;;9.20;99.90;;;;;;5090935;28;20357;-70
2021/05/07 09:44:47;;;;;;;;;;;9.30;99.90;;;;;;5090982;28;19912;-71
2021/05/07 09:47:14;;;;;;;;;;;9.80;99.90;;;;;;5088963;28;20177;-71
2021/05/07 09:49:40;;;;;;;;;;;10.80;99.90;;;;;;5090700;28;20277;-71
2021/05/07 09:52:05;;;;;;;;;;;11.40;99.90;;;;;;5090753;28;19912;-71
2021/05/07 09:54:31;;;;;;;;;;;11.60;99.90;;;;;;5090891;28;20349;-70
2021/05/07 09:56:57;;;;;;;;;;;11.50;99.90;;;;;;5090096;28;19908;-72
2021/05/07 09:59:23;;;;;;;;;;;11.60;99.90;;;;;;5087899;28;20001;-71
2021/05/07 10:01:49;;;;;;;;;;;11.90;99.90;;;;;;5083839;28;19954;-71
2021/05/07 10:04:14;;;;;;;;;;;11.70;99.90;;;;;;5089645;28;20003;-71
2021/05/07 10:06:40;;;;;;;;;;;11.30;99.90;;;;;;5089606;28;19908;-72
2021/05/07 10:09:10;;;;;;;;;;;10.90;99.90;;;;;;5090824;28;19908;-72
2021/05/07 10:11:43;;;;;;;;;;;10.60;99.90;;;;;;5090635;28;20057;-70
2021/05/07 10:14:13;;;;;;;;;;;10.10;99.90;;;;;;5090918;28;20185;-71
2021/05/07 10:16:39;;;;;;;;;;;9.80;99.90;;;;;;5089981;28;19950;-71
2021/05/07 10:19:14;;;;;;;;;;;9.90;99.90;;;;;;5090698;28;19944;-70
2021/05/07 10:21:44;;;;;;;;;;;10.20;99.90;;;;;;5090600;28;19916;-71
2021/05/07 10:24:11;;;;;;;;;;;10.70;99.90;;;;;;5089240;28;20384;-71
2021/05/07 10:26:36;;;;;;;;;;;11.10;99.90;;;;;;5089596;28;19934;-71
2021/05/07 10:29:13;;;;;;;;;;;11.40;97.70;;;;;;5090631;28;20229;-70
2021/05/07 10:31:49;;;;;;;;;;;11.70;95.50;;;;;;5082213;28;20000;-71
2021/05/07 10:34:14;;;;;;;;;;;11.70;95.70;;;;;;5090433;28;19922;-72
2021/05/07 10:36:41;;;;;;;;;;;11.80;97.30;;;;;;5088923;28;19908;-71
2021/05/07 10:39:15;;;;;;;;;;;11.70;95.00;;;;;;5090444;28;19997;-71
2021/05/07 10:41:41;;;;;;;;;;;11.30;96.40;;;;;;5090627;28;20266;-72
2021/05/07 10:44:06;;;;;;;;;;;11.10;97.20;;;;;;5090538;28;19914;-71
2021/05/07 10:46:32;;;;;;;;;;;10.70;97.80;;;;;;5089404;28;19912;-71
2021/05/07 10:48:59;;;;;;;;;;;10.40;97.30;;;;;;5092641;28;19908;-71
2021/05/07 10:51:27;;;;;;;;;;;10.10;98.10;;;;;;5093939;28;20018;-71
2021/05/07 10:54:07;;;;;;;;;;;9.90;98.40;;;;;;5094426;28;19908;-72
2021/05/07 10:56:35;;;;;;;;;;;9.80;98.30;;;;;;5093379;28;19912;-71
2021/05/07 10:59:10;;;;;;;;;;;10.40;98.40;;;;;;5094150;28;19912;-71
2021/05/07 11:01:36;;;;;;;;;;;11.30;98.50;;;;;;5085801;28;19912;-70
2021/05/07 11:04:02;;;;;;;;;;;12.10;95.60;;;;;;5094085;28;19908;-71
2021/05/07 11:06:28;;;;;;;;;;;12.50;95.20;;;;;;5092969;28;19939;-70
2021/05/07 11:08:54;;;;;;;;;;;12.80;93.80;;;;;;5094381;28;20392;-70
2021/05/07 11:11:19;;;;;;;;;;;12.80;93.00;;;;;;5094111;28;20007;-71
2021/05/07 11:13:45;;;;;;;;;;;12.50;92.30;;;;;;5094119;28;20280;-70
2021/05/07 11:16:10;;;;;;;;;;;12.30;92.80;;;;;;5092854;28;20010;-71
2021/05/07 11:18:36;;;;;;;;;;;11.90;93.10;;;;;;5093940;28;19908;-70
2021/05/07 11:21:14;;;;;;;;;;;11.60;93.50;;;;;;5093508;28;19908;-70
2021/05/07 11:23:40;;;;;;;;;;;11.40;93.00;;;;;;5093953;28;19943;-71
2021/05/07 11:26:07;;;;;;;;;;;11.30;93.70;;;;;;5092705;28;20384;-70
2021/05/07 11:28:42;;;;;;;;;;;11.40;92.90;;;;;;5093700;28;19912;-70
2021/05/07 11:31:07;;;;;;;;;;;11.40;92.50;;;;;;5083942;28;19923;-70
2021/05/07 11:33:33;;;;;;;;;;;11.20;92.80;;;;;;5104399;28;19912;-70
2021/05/07 11:36:01;;;;;;;;;;;11.10;93.20;;;;;;5112749;28;19954;-71
2021/05/07 11:38:28;;;;;;;;;;;10.90;93.20;;;;;;5113785;28;19920;-70
2021/05/07 11:40:54;;;;;;;;;;;10.70;92.80;;;;;;5114093;28;20357;-71
2021/05/07 11:43:19;;;;;;;;;;;10.80;94.00;;;;;;5113634;28;20239;-71
2021/05/07 11:45:45;;;;;;;;;;;11.20;96.20;;;;;;5113094;28;20431;-71
2021/05/07 11:48:13;;;;;;;;;;;11.80;94.70;;;;;;5113895;28;19908;-73
2021/05/07 11:50:39;;;;;;;;;;;12.10;92.70;;;;;;5113764;28;19957;-71
2021/05/07 11:53:15;;;;;;;;;;;12.20;92.90;;;;;;5113434;28;19908;-72
2021/05/07 11:55:41;;;;;;;;;;;12.40;93.50;;;;;;5112793;28;19961;-72
2021/05/07 11:58:07;;;;;;;;;;;12.90;95.10;;;;;;5113450;28;19912;-73
2021/05/07 12:00:34;;;;;;;;;;;13.20;90.50;;;;;;5093429;28;19913;-72
2021/05/07 12:03:24;;;;;;;;;;;13.20;90.70;;;;;;5107792;28;19947;-72
2021/05/07 12:05:50;;;;;;;;;;;13.40;90.70;;;;;;5111596;28;19932;-71
2021/05/07 12:08:24;;;;;;;;;;;13.10;90.00;;;;;;5113150;28;19954;-72
2021/05/07 12:10:50;;;;;;;;;;;12.60;90.90;;;;;;5113765;28;19965;-71
2021/05/07 12:13:23;;;;;;;;;;;12.30;90.60;;;;;;5113459;28;20276;-71
2021/05/07 12:15:48;;;;;;;;;;;12.30;92.00;;;;;;5112624;28;19915;-71
2021/05/07 12:18:14;;;;;;;;;;;12.70;90.30;;;;;;5113311;28;20010;-71
2021/05/07 12:20:42;;;;;;;;;;;13.20;90.20;;;;;;5114032;28;19908;-71
2021/05/07 12:23:08;;;;;;;;;;;13.60;90.40;;;;;;5112981;28;19911;-72
2021/05/07 12:25:39;;;;;;;;;;;13.50;88.40;;;;;;5113099;28;19972;-72
2021/05/07 12:28:11;;;;;;;;;;;13.20;86.60;;;;;;5113323;28;19908;-71
2021/05/07 12:30:37;;;;;;;;;;;12.80;86.40;;;;;;5093527;28;19912;-72
2021/05/07 12:33:06;;;;;;;;;;;12.70;88.60;;;;;;5092381;28;19931;-71
2021/05/07 12:35:39;;;;;;;;;;;12.60;90.10;;;;;;5092059;28;20058;-74
2021/05/07 12:38:15;;;;;;;;;;;12.50;91.00;;;;;;5091975;28;20335;-72
2021/05/07 12:40:40;;;;;;;;;;;12.30;90.60;;;;;;5092721;28;19919;-72
2021/05/07 12:43:06;;;;;;;;;;;12.40;91.40;;;;;;5092127;28;19908;-71
2021/05/07 12:45:31;;;;;;;;;;;12.60;90.50;;;;;;5092182;28;19908;-72
2021/05/07 12:47:57;;;;;;;;;;;12.50;85.90;;;;;;5090920;28;20384;-71
2021/05/07 12:50:22;;;;;;;;;;;12.10;85.00;;;;;;5091936;28;19915;-71
2021/05/07 12:52:47;;;;;;;;;;;11.80;88.40;;;;;;5091700;28;19915;-70
2021/05/07 12:55:13;;;;;;;;;;;11.60;87.10;;;;;;5090821;28;19915;-71
2021/05/07 12:57:39;;;;;;;;;;;11.60;87.90;;;;;;5091342;28;19930;-71
2021/05/07 13:00:05;;;;;;;;;;;11.90;87.00;;;;;;5085277;28;20373;-71
2021/05/07 13:02:30;;;;;;;;;;;12.40;88.80;;;;;;5089903;28;19931;-71
2021/05/07 13:04:56;;;;;;;;;;;12.90;85.80;;;;;;5091826;28;19908;-71
2021/05/07 13:07:21;;;;;;;;;;;13.40;85.40;;;;;;5090653;28;19915;-71
2021/05/07 13:09:47;;;;;;;;;;;13.60;86.20;;;;;;5091998;28;19908;-71
2021/05/07 13:12:12;;;;;;;;;;;13.70;84.00;;;;;;5091749;28;19912;-73
2021/05/07 13:14:38;;;;;;;;;;;13.30;82.70;;;;;;5090942;28;19927;-71
2021/05/07 13:17:13;;;;;;;;;;;13.10;85.30;;;;;;5090635;28;19912;-71
2021/05/07 13:19:38;;;;;;;;;;;13.40;81.80;;;;;;5091792;28;19908;-71
2021/05/07 13:22:04;;;;;;;;;;;13.70;81.50;;;;;;5091448;28;20172;-71
2021/05/07 13:24:29;;;;;;;;;;;13.70;79.40;;;;;;5090252;28;19908;-72
2021/05/07 13:26:57;;;;;;;;;;;13.80;82.20;;;;;;5090729;28;20442;-72
2021/05/07 13:29:22;;;;;;;;;;;14.10;78.90;;;;;;5090876;28;19960;-72
2021/05/07 13:31:49;;;;;;;;;;;14.20;85.20;;;;;;5083855;28;20288;-72
2021/05/07 13:34:15;;;;;;;;;;;14.50;80.10;;;;;;5091057;28;19930;-72
2021/05/07 13:36:40;;;;;;;;;;;14.60;81.60;;;;;;5090726;28;19908;-72
2021/05/07 13:39:06;;;;;;;;;;;14.90;78.90;;;;;;5091464;28;19962;-72
2021/05/07 13:41:31;;;;;;;;;;;14.90;80.70;;;;;;5091619;28;19908;-72
2021/05/07 13:43:57;;;;;;;;;;;14.90;78.60;;;;;;5091579;28;19912;-73
2021/05/07 13:46:22;;;;;;;;;;;14.80;76.60;;;;;;5090088;28;19908;-71
2021/05/07 13:48:48;;;;;;;;;;;14.70;75.10;;;;;;5090073;28;19908;-71
2021/05/07 13:51:13;;;;;;;;;;;14.40;73.40;;;;;;5090730;28;20368;-72
2021/05/07 13:53:39;;;;;;;;;;;13.90;76.50;;;;;;5091069;28;20006;-72
2021/05/07 13:56:04;;;;;;;;;;;13.00;77.70;;;;;;5089807;28;19909;-72
2021/05/07 13:58:30;;;;;;;;;;;12.30;82.70;;;;;;5090868;28;20475;-72
2021/05/07 14:00:55;;;;;;;;;;;11.90;84.10;;;;;;5082957;28;20391;-71
2021/05/07 14:03:21;;;;;;;;;;;11.90;85.40;;;;;;5090919;28;20013;-71
2021/05/07 14:05:47;;;;;;;;;;;11.80;84.30;;;;;;5090392;28;19953;-71
2021/05/07 14:08:13;;;;;;;;;;;11.80;84.00;;;;;;5090796;28;19996;-73
2021/05/07 14:10:38;;;;;;;;;;;11.60;83.00;;;;;;5091020;28;20396;-71
2021/05/07 14:13:04;;;;;;;;;;;11.60;83.60;;;;;;5090626;28;19908;-72
2021/05/07 14:15:30;;;;;;;;;;;11.60;85.20;;;;;;5090450;28;19908;-71
2021/05/07 14:17:56;;;;;;;;;;;11.90;85.90;;;;;;5090153;28;19908;-71
2021/05/07 14:20:21;;;;;;;;;;;12.70;84.70;;;;;;5090846;28;20050;-71